Time;durP1;ratioP1;P1;durP2;ratioP2;P2;SDS_P1;SDS_P2;PMS_P1;PMS_P2;Temp;Humidity;BMP_temperature;BMP_pressure;BME280_temperature;BME280_humidity;BME280_pressure;Samples;Min_cycle;Max_cycle;Signal;HPM_P1;HPM_P2
2023/08/18 00:02:23;;;;;;;4.00;2.40;;;16.70;99.90;;;;;;5112532;28;20509;-55
2023/08/18 00:04:49;;;;;;;4.43;2.20;;;16.80;99.90;;;;;;5112532;28;20180;-52
2023/08/18 00:07:15;;;;;;;4.83;2.57;;;16.70;99.90;;;;;;5112349;28;20414;-52
2023/08/18 00:09:43;;;;;;;5.47;2.27;;;16.80;99.90;;;;;;5112890;28;20215;-53
2023/08/18 00:12:09;;;;;;;7.70;2.60;;;16.70;99.90;;;;;;5112724;28;20469;-51
2023/08/18 00:14:35;;;;;;;5.40;2.67;;;16.70;99.90;;;;;;5112599;28;20514;-52
2023/08/18 00:17:00;;;;;;;4.07;2.37;;;16.80;99.90;;;;;;5112460;28;20501;-53
2023/08/18 00:19:26;;;;;;;4.50;2.80;;;16.70;99.90;;;;;;5112386;28;20188;-53
2023/08/18 00:21:52;;;;;;;4.07;2.20;;;16.70;99.90;;;;;;5112216;28;20228;-54
2023/08/18 00:24:17;;;;;;;2.63;2.00;;;16.70;99.90;;;;;;5112122;28;20178;-53
2023/08/18 00:26:45;;;;;;;3.20;2.20;;;16.70;99.90;;;;;;5114487;28;20171;-52
2023/08/18 00:29:10;;;;;;;4.73;2.60;;;16.70;99.90;;;;;;5116482;28;20195;-54
2023/08/18 00:31:36;;;;;;;7.37;2.37;;;16.70;99.90;;;;;;5115862;28;20453;-54
2023/08/18 00:34:01;;;;;;;4.33;2.37;;;16.70;99.90;;;;;;5116162;28;20186;-53
2023/08/18 00:36:27;;;;;;;4.20;2.10;;;16.70;99.90;;;;;;5116024;28;20543;-52
2023/08/18 00:38:53;;;;;;;3.50;2.23;;;16.70;99.90;;;;;;5115849;28;20263;-53
2023/08/18 00:41:19;;;;;;;2.90;2.43;;;16.70;99.90;;;;;;5115960;28;20998;-53
2023/08/18 00:43:44;;;;;;;4.90;2.30;;;16.60;99.90;;;;;;5115873;28;20183;-53
2023/08/18 00:46:10;;;;;;;2.97;2.10;;;16.60;99.90;;;;;;5116206;28;20184;-54
2023/08/18 00:48:40;;;;;;;8.77;2.90;;;16.70;99.90;;;;;;5115900;28;20643;-53
2023/08/18 00:51:06;;;;;;;6.80;2.33;;;16.70;99.90;;;;;;5115710;28;20308;-53
2023/08/18 00:53:32;;;;;;;2.50;2.30;;;16.60;99.90;;;;;;5115714;28;20748;-52
2023/08/18 00:55:58;;;;;;;4.17;2.37;;;16.70;99.90;;;;;;5115651;28;20505;-52
2023/08/18 00:58:23;;;;;;;4.60;2.07;;;16.60;99.90;;;;;;5115636;28;20500;-52
2023/08/18 01:00:52;;;;;;;2.70;2.37;;;16.70;99.90;;;;;;5115360;28;20632;-52
2023/08/18 01:03:18;;;;;;;3.73;2.23;;;16.60;99.90;;;;;;5115505;28;20275;-53
2023/08/18 01:05:44;;;;;;;6.53;2.47;;;16.60;99.90;;;;;;5115834;28;20522;-53
2023/08/18 01:08:09;;;;;;;8.77;2.57;;;16.70;99.90;;;;;;5115748;28;20826;-53
2023/08/18 01:11:05;;;;;;;6.53;2.50;;;16.70;99.90;;;;;;5115390;28;20216;-53
2023/08/18 01:14:12;;;;;;;4.00;2.50;;;16.70;99.90;;;;;;5115248;28;20169;-53
2023/08/18 01:16:42;;;;;;;4.30;2.10;;;16.60;99.90;;;;;;5069607;28;20440;-52
2023/08/18 01:19:11;;;;;;;3.77;2.40;;;16.70;99.90;;;;;;5115320;28;20422;-52
2023/08/18 01:21:41;;;;;;;5.33;2.83;;;16.70;99.90;;;;;;5114921;28;20462;-52
2023/08/18 01:24:06;;;;;;;3.67;2.80;;;16.60;99.90;;;;;;5115389;28;20415;-52
2023/08/18 01:26:32;;;;;;;3.50;2.73;;;16.60;99.90;;;;;;5114889;28;20408;-54
2023/08/18 01:28:58;;;;;;;6.53;2.60;;;16.60;99.90;;;;;;5114979;28;20201;-53
2023/08/18 01:31:28;;;;;;;2.90;2.20;;;16.70;99.90;;;;;;5114901;28;20721;-52
2023/08/18 01:33:58;;;;;;;5.17;2.73;;;16.70;99.90;;;;;;5115034;28;20212;-53
2023/08/18 01:36:26;;;;;;;3.33;2.73;;;16.60;99.90;;;;;;5114677;28;20415;-52
2023/08/18 01:38:54;;;;;;;4.57;3.17;;;16.60;99.90;;;;;;5114824;28;20416;-53
2023/08/18 01:41:24;;;;;;;3.50;2.30;;;16.60;99.90;;;;;;5114888;28;20805;-53
2023/08/18 01:43:51;;;;;;;4.67;2.37;;;16.60;99.90;;;;;;5114853;28;20494;-53
2023/08/18 01:46:17;;;;;;;6.10;2.70;;;16.60;99.90;;;;;;5114712;28;20434;-53
2023/08/18 01:48:43;;;;;;;5.10;2.80;;;16.60;99.90;;;;;;5114749;28;20760;-52
2023/08/18 01:51:08;;;;;;;6.13;3.20;;;16.60;99.90;;;;;;5114380;28;20204;-54
2023/08/18 01:53:34;;;;;;;6.93;2.80;;;16.60;99.90;;;;;;5114595;28;20188;-52
2023/08/18 01:56:00;;;;;;;3.50;2.30;;;16.50;99.90;;;;;;5114650;28;20748;-52
2023/08/18 01:58:26;;;;;;;6.90;2.90;;;16.60;99.90;;;;;;5114400;28;20208;-52
2023/08/18 02:00:54;;;;;;;6.60;2.90;;;16.60;99.90;;;;;;5114434;28;20435;-52
2023/08/18 02:03:20;;;;;;;6.77;2.40;;;16.60;99.90;;;;;;5114299;28;20499;-54
2023/08/18 02:05:46;;;;;;;7.60;3.00;;;16.60;99.90;;;;;;5114558;28;20448;-53
2023/08/18 02:08:11;;;;;;;4.83;2.80;;;16.70;99.90;;;;;;5114465;28;20648;-52
2023/08/18 02:10:37;;;;;;;5.17;2.70;;;16.70;99.90;;;;;;5114013;28;20300;-53
2023/08/18 02:13:03;;;;;;;4.63;2.53;;;16.60;99.90;;;;;;5113959;28;20170;-52
2023/08/18 02:15:28;;;;;;;7.37;2.73;;;16.70;99.90;;;;;;5114212;28;20195;-52
2023/08/18 02:17:54;;;;;;;3.83;2.60;;;16.60;99.90;;;;;;5113782;28;20416;-52
2023/08/18 02:20:20;;;;;;;4.97;3.03;;;16.70;99.90;;;;;;5114028;28;20234;-52
2023/08/18 02:22:45;;;;;;;9.00;3.17;;;16.60;99.90;;;;;;5113938;28;20229;-52
2023/08/18 02:25:11;;;;;;;5.00;2.90;;;16.60;99.90;;;;;;5113822;28;20179;-52
2023/08/18 02:27:36;;;;;;;6.53;3.23;;;16.60;99.90;;;;;;5113778;28;20181;-52
2023/08/18 02:30:03;;;;;;;13.00;3.77;;;16.60;99.90;;;;;;5114013;28;20564;-53
2023/08/18 02:32:29;;;;;;;5.43;3.40;;;16.50;99.90;;;;;;5113597;28;20200;-53
2023/08/18 02:34:55;;;;;;;10.80;3.23;;;16.50;99.90;;;;;;5113884;28;20471;-52
2023/08/18 02:37:20;;;;;;;4.30;3.40;;;16.50;99.90;;;;;;5113431;28;20199;-53
2023/08/18 02:39:46;;;;;;;5.33;3.10;;;16.50;99.90;;;;;;5113872;28;20282;-52
2023/08/18 02:42:12;;;;;;;5.20;2.93;;;16.40;99.90;;;;;;5113843;28;20191;-53
2023/08/18 02:44:37;;;;;;;6.70;3.00;;;16.40;99.90;;;;;;5113588;28;20279;-52
2023/08/18 02:47:03;;;;;;;3.30;3.00;;;16.30;99.90;;;;;;5113402;28;20177;-52
2023/08/18 02:49:28;;;;;;;4.47;3.20;;;16.30;99.90;;;;;;5113021;28;20172;-52
2023/08/18 02:51:54;;;;;;;11.20;3.60;;;16.20;99.90;;;;;;5113501;28;20208;-52
2023/08/18 02:54:20;;;;;;;7.60;3.07;;;16.20;99.90;;;;;;5113554;28;20174;-52
2023/08/18 02:56:45;;;;;;;9.70;3.10;;;16.20;99.90;;;;;;5113071;28;20635;-53
2023/08/18 02:59:11;;;;;;;9.17;3.53;;;16.20;99.90;;;;;;5113367;28;20184;-52
2023/08/18 03:01:37;;;;;;;5.70;3.57;;;16.20;99.90;;;;;;5113393;28;21235;-52
2023/08/18 03:04:02;;;;;;;5.90;3.50;;;16.20;99.90;;;;;;5112948;28;20176;-52
2023/08/18 03:06:28;;;;;;;10.40;3.70;;;16.30;99.90;;;;;;5113210;28;20420;-52
2023/08/18 03:08:53;;;;;;;5.87;3.23;;;16.30;99.90;;;;;;5112994;28;20180;-52
2023/08/18 03:11:19;;;;;;;11.90;4.33;;;16.30;99.90;;;;;;5113077;28;20212;-53
2023/08/18 03:13:45;;;;;;;8.40;3.57;;;16.30;99.90;;;;;;5113484;28;20261;-53
2023/08/18 03:16:10;;;;;;;5.20;3.50;;;16.30;99.90;;;;;;5113115;28;20168;-53
2023/08/18 03:18:36;;;;;;;10.57;3.73;;;16.30;99.90;;;;;;5112780;28;20587;-52
2023/08/18 03:21:05;;;;;;;10.27;4.40;;;16.40;99.90;;;;;;5112837;28;20180;-52
2023/08/18 03:23:31;;;;;;;11.23;4.07;;;16.30;99.90;;;;;;5113084;28;20261;-52
2023/08/18 03:26:00;;;;;;;8.47;3.80;;;16.30;99.90;;;;;;5113004;28;20515;-52
2023/08/18 03:28:27;;;;;;;8.17;3.90;;;16.30;99.90;;;;;;5112649;28;20188;-52
2023/08/18 03:31:00;;;;;;;7.93;3.97;;;16.30;99.90;;;;;;5112892;28;20473;-51
2023/08/18 03:33:27;;;;;;;6.13;3.60;;;16.30;99.90;;;;;;5112987;28;20414;-52
2023/08/18 03:35:52;;;;;;;7.97;4.30;;;16.30;99.90;;;;;;5112637;28;20523;-53
2023/08/18 03:38:18;;;;;;;9.53;5.20;;;16.20;99.90;;;;;;5112640;28;20509;-54
2023/08/18 03:40:43;;;;;;;9.13;4.50;;;16.20;99.90;;;;;;5112877;28;20177;-52
2023/08/18 03:43:09;;;;;;;10.70;4.60;;;16.20;99.90;;;;;;5112973;28;20189;-52
2023/08/18 03:45:35;;;;;;;13.23;5.00;;;16.20;99.90;;;;;;5112844;28;20571;-51
2023/08/18 03:48:00;;;;;;;9.33;4.70;;;16.10;99.90;;;;;;5112473;28;20187;-51
2023/08/18 03:50:26;;;;;;;9.13;4.40;;;16.10;99.90;;;;;;5112411;28;20262;-52
2023/08/18 03:52:52;;;;;;;9.10;4.83;;;16.10;99.90;;;;;;5112717;28;20180;-52
2023/08/18 03:55:18;;;;;;;10.47;5.17;;;16.00;99.90;;;;;;5113023;28;20184;-53
2023/08/18 03:57:43;;;;;;;9.17;4.60;;;16.00;99.90;;;;;;5112742;28;20427;-51
2023/08/18 04:00:11;;;;;;;11.33;5.20;;;16.00;99.90;;;;;;5113786;28;20271;-51
2023/08/18 04:02:36;;;;;;;10.60;5.50;;;16.00;99.90;;;;;;5116688;28;20550;-52
2023/08/18 04:05:02;;;;;;;14.07;5.60;;;16.00;99.90;;;;;;5116800;28;20402;-51
2023/08/18 04:07:30;;;;;;;10.80;6.27;;;16.00;99.90;;;;;;5116462;28;20179;-50
2023/08/18 04:09:56;;;;;;;13.77;5.33;;;16.00;99.90;;;;;;5116551;28;20199;-52
2023/08/18 04:12:21;;;;;;;12.23;5.70;;;16.00;99.90;;;;;;5116167;28;20469;-51
2023/08/18 04:14:47;;;;;;;10.73;6.10;;;16.00;99.90;;;;;;5116705;28;20176;-51
2023/08/18 04:17:12;;;;;;;18.87;6.00;;;16.00;99.90;;;;;;5116182;28;20176;-51
2023/08/18 04:19:38;;;;;;;13.10;5.87;;;16.00;99.90;;;;;;5116457;28;20187;-52
2023/08/18 04:22:04;;;;;;;15.13;6.17;;;16.00;99.90;;;;;;5116336;28;20247;-52
2023/08/18 04:24:29;;;;;;;12.27;5.53;;;16.00;99.90;;;;;;5116025;28;20181;-51
2023/08/18 04:26:59;;;;;;;15.83;7.30;;;16.00;99.90;;;;;;5116320;28;20180;-51
2023/08/18 04:29:26;;;;;;;13.17;7.27;;;16.10;99.90;;;;;;5116256;28;20241;-51
2023/08/18 04:31:52;;;;;;;13.03;6.33;;;16.20;99.90;;;;;;5116141;28;20465;-52
2023/08/18 04:34:17;;;;;;;9.43;6.73;;;16.20;99.90;;;;;;5116402;28;20421;-52
2023/08/18 04:36:43;;;;;;;15.90;7.80;;;16.30;99.90;;;;;;5116213;28;20180;-52
2023/08/18 04:39:11;;;;;;;18.73;7.50;;;16.30;99.90;;;;;;5115790;28;20179;-52
2023/08/18 04:41:36;;;;;;;11.07;7.47;;;16.40;99.90;;;;;;5115686;28;20184;-52
2023/08/18 04:44:03;;;;;;;15.93;7.97;;;16.50;99.90;;;;;;5115972;28;20722;-51
2023/08/18 04:46:29;;;;;;;20.27;10.63;;;16.50;99.90;;;;;;5115921;28;20268;-51
2023/08/18 04:48:54;;;;;;;15.87;8.63;;;16.50;99.90;;;;;;5115844;28;20417;-51
2023/08/18 04:51:20;;;;;;;18.43;10.63;;;16.60;99.90;;;;;;5115520;28;20457;-51
2023/08/18 04:53:45;;;;;;;14.17;9.40;;;16.60;99.90;;;;;;5116003;28;20185;-52
2023/08/18 04:56:11;;;;;;;12.87;9.40;;;16.60;99.90;;;;;;5115732;28;20203;-52
2023/08/18 04:58:37;;;;;;;20.63;10.47;;;16.70;99.90;;;;;;5115705;28;20181;-52
2023/08/18 05:01:04;;;;;;;17.97;9.77;;;16.70;99.90;;;;;;5115586;28;20188;-51
2023/08/18 05:03:29;;;;;;;21.53;11.50;;;16.80;99.90;;;;;;5115545;28;20182;-52
2023/08/18 05:06:03;;;;;;;26.17;12.60;;;16.80;99.90;;;;;;5115531;28;20862;-52
2023/08/18 05:08:30;;;;;;;18.70;11.63;;;16.80;99.90;;;;;;5115160;28;20795;-52
2023/08/18 05:11:00;;;;;;;24.40;11.77;;;16.90;99.90;;;;;;5115422;28;20454;-52
2023/08/18 05:13:25;;;;;;;28.20;11.70;;;17.00;99.90;;;;;;5114454;28;20417;-51
2023/08/18 05:15:52;;;;;;;20.13;11.33;;;16.90;99.90;;;;;;5115289;28;20419;-52
2023/08/18 05:18:19;;;;;;;17.50;9.50;;;17.00;99.90;;;;;;5115146;28;20637;-53
2023/08/18 05:20:44;;;;;;;20.47;11.00;;;17.00;99.90;;;;;;5115328;28;20866;-53
2023/08/18 05:23:10;;;;;;;21.07;11.90;;;17.10;99.90;;;;;;5114873;28;20473;-53
2023/08/18 05:25:37;;;;;;;16.73;10.77;;;17.10;99.90;;;;;;5114870;28;20247;-52
2023/08/18 05:28:03;;;;;;;18.77;10.20;;;17.20;99.90;;;;;;5114885;28;20416;-52
2023/08/18 05:30:28;;;;;;;19.10;10.70;;;17.20;99.90;;;;;;5114768;28;20182;-52
2023/08/18 05:32:54;;;;;;;14.07;10.67;;;17.30;99.90;;;;;;5114847;28;20680;-52
2023/08/18 05:35:19;;;;;;;21.17;11.97;;;17.30;99.90;;;;;;5115066;28;20184;-52
2023/08/18 05:37:45;;;;;;;19.03;10.67;;;17.30;99.90;;;;;;5114918;28;20178;-52
2023/08/18 05:40:11;;;;;;;22.60;11.30;;;17.30;99.90;;;;;;5114599;28;20213;-52
2023/08/18 05:42:36;;;;;;;21.67;10.70;;;17.40;99.90;;;;;;5114536;28;20178;-51
2023/08/18 05:45:03;;;;;;;16.33;11.40;;;17.40;99.90;;;;;;5114852;28;20180;-52
2023/08/18 05:47:29;;;;;;;15.80;11.47;;;17.40;99.90;;;;;;5114286;28;20657;-52
2023/08/18 05:49:54;;;;;;;22.90;12.40;;;17.50;99.90;;;;;;5114713;28;20411;-52
2023/08/18 05:52:20;;;;;;;16.00;11.60;;;17.50;99.90;;;;;;5114748;28;20617;-52
2023/08/18 05:54:45;;;;;;;23.17;12.20;;;17.60;99.90;;;;;;5114748;28;20277;-54
2023/08/18 05:57:11;;;;;;;20.33;10.83;;;17.60;99.90;;;;;;5114420;28;20191;-52
2023/08/18 05:59:36;;;;;;;18.30;12.30;;;17.60;99.90;;;;;;5114358;28;20174;-53
2023/08/18 06:02:04;;;;;;;20.13;12.90;;;17.60;99.90;;;;;;5114652;28;20186;-53
2023/08/18 06:04:29;;;;;;;17.40;11.90;;;17.60;99.90;;;;;;5113968;28;20631;-53
2023/08/18 06:06:55;;;;;;;20.10;12.00;;;17.70;99.90;;;;;;5114107;28;20530;-52
2023/08/18 06:09:20;;;;;;;19.13;10.43;;;17.70;99.90;;;;;;5114076;28;20531;-54
2023/08/18 06:11:46;;;;;;;18.17;11.90;;;17.80;99.90;;;;;;5114203;28;20207;-53
2023/08/18 06:14:12;;;;;;;21.23;11.70;;;17.90;99.90;;;;;;5114150;28;20187;-52
2023/08/18 06:16:37;;;;;;;15.77;11.43;;;17.90;99.90;;;;;;5114142;28;20182;-52
2023/08/18 06:19:03;;;;;;;13.83;10.43;;;18.00;99.90;;;;;;5113928;28;20634;-53
2023/08/18 06:21:28;;;;;;;16.40;11.80;;;18.00;99.90;;;;;;5113731;28;20231;-52
2023/08/18 06:23:54;;;;;;;21.00;12.57;;;18.10;99.90;;;;;;5112965;28;20183;-52
2023/08/18 06:26:20;;;;;;;16.23;10.80;;;18.20;99.90;;;;;;5114135;28;20256;-52
2023/08/18 06:28:45;;;;;;;18.40;11.30;;;18.20;99.90;;;;;;5113525;28;20186;-53
2023/08/18 06:31:11;;;;;;;13.90;10.90;;;18.30;99.90;;;;;;5113529;28;20202;-52
2023/08/18 06:33:37;;;;;;;16.90;12.40;;;18.30;99.90;;;;;;5113752;28;20238;-53
2023/08/18 06:36:03;;;;;;;13.20;11.03;;;18.30;99.90;;;;;;5113439;28;20210;-51
2023/08/18 06:38:29;;;;;;;24.73;14.17;;;18.40;99.90;;;;;;5113812;28;20205;-52
2023/08/18 06:40:54;;;;;;;18.53;13.53;;;18.40;99.90;;;;;;5113523;28;20458;-54
2023/08/18 06:43:20;;;;;;;15.03;11.60;;;18.40;66.20;;;;;;5113699;28;20178;-52
2023/08/18 06:45:46;;;;;;;15.43;11.20;;;18.50;65.70;;;;;;5113627;28;20187;-52
2023/08/18 06:48:11;;;;;;;15.07;11.87;;;18.50;85.60;;;;;;5113548;28;20177;-52
2023/08/18 06:50:37;;;;;;;16.33;12.87;;;18.60;64.70;;;;;;5113490;28;20210;-53
2023/08/18 06:53:03;;;;;;;16.60;11.90;;;18.60;91.10;;;;;;5113533;28;20504;-52
2023/08/18 06:55:29;;;;;;;17.63;11.60;;;18.60;50.30;;;;;;5113551;28;20183;-52
2023/08/18 06:57:54;;;;;;;16.87;11.23;;;18.60;36.80;;;;;;5113357;28;20186;-54
2023/08/18 07:00:20;;;;;;;17.40;12.40;;;18.70;4.40;;;;;;5113495;28;20199;-52
2023/08/18 07:02:46;;;;;;;24.00;12.60;;;18.60;1.00;;;;;;5113417;28;20193;-53
2023/08/18 07:05:12;;;;;;;19.67;13.47;;;18.60;1.00;;;;;;5113036;28;20420;-52
2023/08/18 07:07:38;;;;;;;20.10;11.83;;;18.70;1.00;;;;;;5113327;28;20174;-52
2023/08/18 07:10:04;;;;;;;18.67;12.53;;;18.80;1.00;;;;;;5112894;28;20981;-54
2023/08/18 07:12:30;;;;;;;19.33;11.10;;;18.80;3.40;;;;;;5113224;28;20222;-54
2023/08/18 07:14:56;;;;;;;15.67;11.70;;;18.80;1.00;;;;;;5112874;28;20907;-53
2023/08/18 07:17:21;;;;;;;13.47;12.07;;;18.90;1.00;;;;;;5113288;28;20180;-53
2023/08/18 07:19:47;;;;;;;16.70;13.00;;;19.00;1.00;;;;;;5113187;28;20225;-53
2023/08/18 07:22:12;;;;;;;20.30;13.80;;;19.10;1.00;;;;;;5112711;28;20281;-54
2023/08/18 07:24:38;;;;;;;15.90;12.70;;;19.10;1.00;;;;;;5112796;28;20197;-53
2023/08/18 07:27:04;;;;;;;18.93;12.50;;;19.20;1.00;;;;;;5113026;28;20180;-54
2023/08/18 07:29:30;;;;;;;15.70;11.03;;;19.20;1.00;;;;;;5113000;28;20592;-53
2023/08/18 07:31:55;;;;;;;15.37;11.00;;;19.30;1.00;;;;;;5112903;28;20224;-55
2023/08/18 07:34:21;;;;;;;18.50;11.60;;;19.40;1.00;;;;;;5113324;28;20772;-53
2023/08/18 07:36:46;;;;;;;17.70;13.80;;;19.40;1.00;;;;;;5119557;28;20274;-52
2023/08/18 07:39:12;;;;;;;16.20;12.47;;;19.50;1.00;;;;;;5119501;28;20187;-54
2023/08/18 07:41:40;;;;;;;21.20;12.87;;;19.40;1.00;;;;;;5119522;28;20187;-54
2023/08/18 07:44:07;;;;;;;17.53;12.90;;;19.40;1.00;;;;;;5119382;28;20680;-54
2023/08/18 07:46:33;;;;;;;18.17;13.27;;;19.40;1.00;;;;;;5119560;28;20414;-53
2023/08/18 07:48:59;;;;;;;19.50;12.83;;;19.40;1.00;;;;;;5119481;28;20878;-54
2023/08/18 07:51:24;;;;;;;30.37;14.40;;;19.40;1.00;;;;;;5119265;28;20517;-54
2023/08/18 07:53:51;;;;;;;21.07;14.70;;;19.40;1.00;;;;;;5119673;28;20182;-53
2023/08/18 07:56:16;;;;;;;18.37;12.67;;;19.50;99.90;;;;;;5119580;28;20270;-53
2023/08/18 07:58:42;;;;;;;19.73;14.67;;;19.50;99.90;;;;;;5119636;28;20498;-53
2023/08/18 08:01:07;;;;;;;17.30;14.40;;;19.60;1.00;;;;;;5119361;28;20521;-52
2023/08/18 08:03:33;;;;;;;18.10;13.37;;;19.70;1.00;;;;;;5119227;28;20201;-54
2023/08/18 08:05:59;;;;;;;17.90;13.77;;;19.70;1.00;;;;;;5119639;28;20182;-52
2023/08/18 08:08:24;;;;;;;17.00;13.23;;;19.70;99.90;;;;;;5119279;28;20198;-53
2023/08/18 08:10:50;;;;;;;15.60;11.20;;;19.80;1.00;;;;;;5119783;28;20551;-53
2023/08/18 08:13:15;;;;;;;15.53;12.57;;;19.90;1.00;;;;;;5119422;28;20235;-54
2023/08/18 08:15:45;;;;;;;14.83;11.17;;;20.10;1.00;;;;;;5119527;28;20183;-53
2023/08/18 08:18:13;;;;;;;21.30;12.80;;;20.30;1.00;;;;;;5119443;28;20188;-54
2023/08/18 08:20:40;;;;;;;17.10;12.27;;;20.50;99.90;;;;;;5119161;28;20414;-53
2023/08/18 08:23:06;;;;;;;15.30;12.53;;;20.60;99.90;;;;;;5119458;28;20472;-53
2023/08/18 08:25:33;;;;;;;16.77;11.70;;;20.60;1.00;;;;;;5119308;28;20419;-53
2023/08/18 08:27:59;;;;;;;17.87;12.10;;;20.70;99.90;;;;;;5119126;28;20418;-53
2023/08/18 08:30:25;;;;;;;14.70;10.97;;;20.90;99.90;;;;;;5119291;28;20421;-53
2023/08/18 08:32:51;;;;;;;17.00;12.93;;;21.10;99.90;;;;;;5119524;28;20271;-53
2023/08/18 08:35:17;;;;;;;15.63;13.20;;;21.20;99.90;;;;;;5119235;28;20445;-53
2023/08/18 08:37:42;;;;;;;15.13;12.17;;;21.10;1.00;;;;;;5119342;28;20195;-54
2023/08/18 08:40:17;;;;;;;17.00;12.67;;;21.10;99.90;;;;;;5118968;28;20176;-54
2023/08/18 08:42:43;;;;;;;12.73;11.07;;;21.00;99.90;;;;;;5119493;28;20213;-54
2023/08/18 08:45:09;;;;;;;17.70;12.20;;;21.10;99.90;;;;;;5119147;28;20790;-54
2023/08/18 08:47:35;;;;;;;16.13;12.90;;;21.20;99.90;;;;;;5115622;28;20260;-54
2023/08/18 08:50:03;;;;;;;15.20;11.53;;;21.30;1.00;;;;;;5115904;28;20501;-54
2023/08/18 08:52:35;;;;;;;13.10;11.33;;;21.40;99.90;;;;;;5115575;28;20473;-53
2023/08/18 08:55:02;;;;;;;13.53;11.80;;;21.40;1.00;;;;;;5115844;28;20403;-52
2023/08/18 08:57:28;;;;;;;14.83;12.53;;;21.50;1.00;;;;;;5115561;28;20406;-53
2023/08/18 08:59:54;;;;;;;13.83;11.40;;;21.60;99.90;;;;;;5115874;28;20415;-52
2023/08/18 09:02:21;;;;;;;12.83;11.53;;;21.90;1.00;;;;;;5115977;28;20576;-53
2023/08/18 09:04:46;;;;;;;23.80;11.70;;;22.10;1.00;;;;;;5115392;28;20509;-53
2023/08/18 09:07:13;;;;;;;14.77;11.00;;;22.20;1.00;;;;;;5115567;28;20513;-53
2023/08/18 09:09:39;;;;;;;14.43;11.87;;;22.30;99.90;;;;;;5115613;28;20208;-53
2023/08/18 09:12:07;;;;;;;12.20;11.00;;;22.30;99.90;;;;;;5115344;28;20955;-54
2023/08/18 09:14:39;;;;;;;20.33;12.10;;;22.30;99.90;;;;;;5115504;28;20506;-53
2023/08/18 09:17:06;;;;;;;14.37;11.07;;;22.30;99.90;;;;;;5115348;28;20995;-54
2023/08/18 09:19:31;;;;;;;14.53;10.97;;;22.40;99.90;;;;;;5115331;28;20778;-53
2023/08/18 09:21:58;;;;;;;19.87;9.77;;;22.70;99.90;;;;;;5115093;28;20466;-53
2023/08/18 09:24:24;;;;;;;15.73;10.80;;;23.50;99.90;;;;;;5115314;28;20189;-54
2023/08/18 09:26:50;;;;;;;13.57;10.30;;;24.20;99.90;;;;;;5115361;28;20951;-53
2023/08/18 09:29:16;;;;;;;10.80;9.70;;;24.50;1.00;;;;;;5115113;28;20415;-53
2023/08/18 09:31:46;;;;;;;10.63;9.23;;;24.60;1.00;;;;;;5115124;28;20248;-53
2023/08/18 09:34:21;;;;;;;13.50;10.37;;;24.60;1.00;;;;;;5115146;28;20184;-53
2023/08/18 09:36:52;;;;;;;13.50;10.30;;;24.40;1.00;;;;;;5114917;28;20453;-53
2023/08/18 09:39:18;;;;;;;13.90;10.57;;;24.10;1.00;;;;;;5115026;28;20411;-53
2023/08/18 09:41:52;;;;;;;12.43;10.23;;;23.90;1.00;;;;;;5114871;28;20415;-54
2023/08/18 09:44:19;;;;;;;15.73;10.53;;;23.60;6.40;;;;;;5114739;28;20490;-53
2023/08/18 09:46:57;;;;;;;14.03;10.83;;;23.60;13.60;;;;;;5114537;28;20858;-53
2023/08/18 09:49:24;;;;;;;11.90;9.63;;;23.60;41.60;;;;;;5114716;28;20403;-52
2023/08/18 09:51:52;;;;;;;12.60;10.07;;;24.10;1.00;;;;;;5114279;28;20505;-53
2023/08/18 09:54:19;;;;;;;12.67;8.57;;;24.80;1.00;;;;;;5114297;28;20419;-53
2023/08/18 09:56:49;;;;;;;10.93;8.40;;;25.10;1.00;;;;;;5114274;28;20407;-53
2023/08/18 09:59:29;;;;;;;12.70;9.13;;;25.40;1.00;;;;;;5114100;28;20422;-53
2023/08/18 10:01:55;;;;;;;15.43;10.10;;;25.60;1.00;;;;;;5096062;28;20775;-54
2023/08/18 10:04:27;;;;;;;12.53;9.00;;;25.50;1.00;;;;;;5114266;28;20402;-53
2023/08/18 10:06:54;;;;;;;11.70;8.80;;;25.60;1.00;;;;;;5114109;28;20419;-53
2023/08/18 10:09:22;;;;;;;14.33;9.67;;;25.80;1.00;;;;;;5114073;28;20410;-53
2023/08/18 10:11:52;;;;;;;10.13;8.53;;;26.00;1.00;;;;;;5113987;28;20469;-54
2023/08/18 10:14:20;;;;;;;13.20;9.10;;;26.50;1.00;;;;;;5113927;28;20467;-53
2023/08/18 10:16:48;;;;;;;10.40;9.00;;;26.70;1.00;;;;;;5113538;28;20925;-52
2023/08/18 10:19:14;;;;;;;12.70;9.47;;;27.00;1.00;;;;;;5113874;28;20407;-53
2023/08/18 10:21:39;;;;;;;9.00;7.80;;;27.00;1.00;;;;;;5113443;28;20982;-52
2023/08/18 10:24:06;;;;;;;9.97;8.30;;;27.30;1.00;;;;;;5113723;28;20299;-53
2023/08/18 10:26:34;;;;;;;10.60;8.00;;;27.50;1.00;;;;;;5113684;28;20177;-53
2023/08/18 10:29:16;;;;;;;9.43;7.63;;;27.50;1.00;;;;;;5113628;28;20501;-53
2023/08/18 10:31:56;;;;;;;8.70;7.60;;;27.60;1.00;;;;;;5113491;28;20458;-53
2023/08/18 10:34:22;;;;;;;8.83;7.10;;;28.00;1.00;;;;;;5113884;28;20929;-53
2023/08/18 10:36:56;;;;;;;8.30;7.50;;;28.40;1.00;;;;;;5113513;28;20415;-53
2023/08/18 10:39:24;;;;;;;11.13;7.87;;;28.80;1.00;;;;;;5113804;28;20394;-53
2023/08/18 10:42:07;;;;;;;9.40;8.00;;;29.40;1.00;;;;;;5113104;28;20422;-55
2023/08/18 10:44:33;;;;;;;9.73;7.30;;;29.70;1.00;;;;;;5113307;28;20415;-52
2023/08/18 10:47:02;;;;;;;10.43;8.10;;;29.70;1.00;;;;;;5113344;28;20768;-52
2023/08/18 10:49:28;;;;;;;10.00;7.50;;;29.70;1.00;;;;;;5113149;28;20636;-52
2023/08/18 10:51:53;;;;;;;10.93;7.33;;;29.40;1.00;;;;;;5113470;28;20503;-52
2023/08/18 10:54:21;;;;;;;9.20;7.70;;;29.20;1.00;;;;;;5112999;28;20173;-53
2023/08/18 10:56:47;;;;;;;10.00;7.20;;;29.10;1.00;;;;;;5113157;28;20212;-53
2023/08/18 10:59:13;;;;;;;7.40;6.70;;;29.30;1.00;;;;;;5113146;28;20413;-53
2023/08/18 11:01:39;;;;;;;7.80;7.00;;;29.90;1.00;;;;;;5112777;28;20185;-55
2023/08/18 11:04:05;;;;;;;9.93;7.20;;;30.30;1.00;;;;;;5113100;28;20422;-54
2023/08/18 11:06:30;;;;;;;11.47;8.30;;;30.30;1.00;;;;;;5112678;28;20670;-53
2023/08/18 11:08:56;;;;;;;7.33;6.47;;;30.40;1.00;;;;;;5112923;28;20406;-55
2023/08/18 11:11:22;;;;;;;8.53;7.73;;;30.40;1.00;;;;;;5111993;28;20293;-54
2023/08/18 11:13:50;;;;;;;7.07;6.50;;;30.50;1.00;;;;;;5113039;28;20241;-53
2023/08/18 11:16:17;;;;;;;8.37;7.30;;;30.80;1.00;;;;;;5112643;28;21120;-53
2023/08/18 11:18:43;;;;;;;9.30;7.07;;;30.80;1.00;;;;;;5112716;28;20419;-54
2023/08/18 11:21:08;;;;;;;9.53;6.87;;;30.70;1.00;;;;;;5112495;28;20399;-53
2023/08/18 11:23:34;;;;;;;8.80;7.20;;;30.70;1.00;;;;;;5112656;28;20186;-53
2023/08/18 11:26:01;;;;;;;14.53;6.80;;;31.00;1.00;;;;;;5112448;28;20215;-53
2023/08/18 11:28:27;;;;;;;8.47;7.20;;;31.20;1.00;;;;;;5112920;28;20602;-52
2023/08/18 11:30:56;;;;;;;9.60;7.10;;;31.20;1.00;;;;;;5112753;28;20494;-53
2023/08/18 11:33:25;;;;;;;8.03;6.87;;;31.30;1.00;;;;;;5112732;28;20180;-55
2023/08/18 11:35:51;;;;;;;10.10;6.50;;;31.40;1.00;;;;;;5112514;28;20774;-54
2023/08/18 11:38:17;;;;;;;7.03;6.30;;;31.50;1.00;;;;;;5112586;28;20419;-53
2023/08/18 11:40:46;;;;;;;7.07;6.47;;;31.80;1.00;;;;;;5112281;28;20421;-54
2023/08/18 11:43:13;;;;;;;7.40;6.70;;;32.10;1.00;;;;;;5112663;28;20204;-56
2023/08/18 11:45:39;;;;;;;10.10;6.57;;;32.20;1.00;;;;;;5112306;28;20532;-53
2023/08/18 11:48:05;;;;;;;11.37;6.33;;;32.20;1.00;;;;;;5112243;28;20423;-54
2023/08/18 11:50:38;;;;;;;10.30;7.57;;;32.30;1.00;;;;;;5112218;28;20413;-54
2023/08/18 11:53:06;;;;;;;6.97;6.27;;;32.20;1.00;;;;;;5112096;28;20446;-54
2023/08/18 11:55:43;;;;;;;8.30;7.50;;;32.40;1.00;;;;;;5112236;28;20467;-53
2023/08/18 11:58:10;;;;;;;10.90;6.30;;;32.40;1.00;;;;;;5112138;28;20423;-54
2023/08/18 12:00:40;;;;;;;10.60;7.40;;;32.50;1.00;;;;;;5111891;28;21064;-55
2023/08/18 12:03:21;;;;;;;9.00;7.27;;;32.70;1.00;;;;;;5111742;28;20442;-56
2023/08/18 12:05:46;;;;;;;9.50;6.70;;;32.90;1.00;;;;;;5111908;28;20403;-54
2023/08/18 12:08:12;;;;;;;10.60;6.87;;;32.90;1.00;;;;;;5111991;28;20780;-56
2023/08/18 12:10:38;;;;;;;8.23;7.30;;;32.90;1.00;;;;;;5111832;28;20197;-54
2023/08/18 12:13:04;;;;;;;7.27;6.13;;;32.70;1.00;;;;;;5111677;28;20185;-54
2023/08/18 12:15:30;;;;;;;7.60;6.90;;;32.70;1.00;;;;;;5111680;28;20910;-54
2023/08/18 12:17:56;;;;;;;7.70;6.23;;;32.30;1.00;;;;;;5111799;28;20601;-55
2023/08/18 12:20:23;;;;;;;10.80;7.37;;;31.50;1.00;;;;;;5111817;28;20185;-56
2023/08/18 12:22:50;;;;;;;7.53;6.83;;;31.20;1.00;;;;;;5113547;28;20240;-55
2023/08/18 12:25:16;;;;;;;8.80;7.90;;;30.60;1.00;;;;;;5115626;28;20434;-55
2023/08/18 12:27:45;;;;;;;9.60;7.70;;;30.20;1.00;;;;;;5115934;28;20414;-54
2023/08/18 12:30:12;;;;;;;8.57;7.27;;;30.40;1.00;;;;;;5115687;28;20476;-54
2023/08/18 12:32:37;;;;;;;7.57;6.83;;;31.20;1.00;;;;;;5115700;28;20882;-54
2023/08/18 12:35:04;;;;;;;7.90;7.10;;;31.90;1.00;;;;;;5115751;28;20419;-55
2023/08/18 12:37:30;;;;;;;10.57;6.87;;;32.40;1.00;;;;;;5115888;28;20184;-55
2023/08/18 12:39:55;;;;;;;7.33;6.63;;;32.70;1.00;;;;;;5115913;28;20755;-55